createdAt,value
2022-12-18T00:02:08.897Z,96577.88
2022-12-18T00:04:35.418Z,96578.63
2022-12-18T00:07:01.974Z,96582.31
2022-12-18T00:09:31.152Z,96574.47
2022-12-18T00:14:42.971Z,96580.44
2022-12-18T00:17:10.114Z,96582.97
2022-12-18T00:19:36.825Z,96574.56
2022-12-18T00:22:03.557Z,96569.78
2022-12-18T00:24:30.146Z,96570.84
2022-12-18T00:26:56.732Z,96578.06
2022-12-18T00:29:23.275Z,96577.63
2022-12-18T00:31:49.883Z,96576.50
2022-12-18T00:34:16.823Z,96576.50
2022-12-18T00:36:43.397Z,96581.56
2022-12-18T00:39:11.879Z,96579.03
2022-12-18T00:41:57.480Z,96567.97
2022-12-18T00:44:24.068Z,96551.34
2022-12-18T00:46:50.608Z,96549.69
2022-12-18T00:49:19.134Z,96552.16
2022-12-18T00:51:46.538Z,96548.91
2022-12-18T00:54:15.084Z,96555.97
2022-12-18T00:56:49.970Z,96551.59
2022-12-18T00:59:19.929Z,96563.97
2022-12-18T01:01:47.029Z,96559.66
2022-12-18T01:04:14.257Z,96567.09
2022-12-18T01:06:41.186Z,96555.41
2022-12-18T01:09:07.724Z,96559.16
2022-12-18T01:11:34.378Z,96543.19
2022-12-18T01:14:00.974Z,96553.47
2022-12-18T01:16:27.689Z,96539.56
2022-12-18T01:18:55.528Z,96542.28
2022-12-18T01:21:22.943Z,96537.41
2022-12-18T01:23:54.560Z,96549.88
2022-12-18T01:26:21.280Z,96543.56
2022-12-18T01:28:48.207Z,96553.66
2022-12-18T01:31:29.594Z,96550.38
2022-12-18T01:33:57.220Z,96543.41
2022-12-18T01:36:37.849Z,96542.63
2022-12-18T01:39:11.126Z,96542.03
2022-12-18T01:41:56.454Z,96549.22
2022-12-18T01:44:50.791Z,96543.91
2022-12-18T01:47:41.183Z,96538.19
2022-12-18T01:50:15.960Z,96533.69
2022-12-18T01:52:47.888Z,96545.16
2022-12-18T01:55:17.326Z,96548.88
2022-12-18T01:57:44.147Z,96555.50
2022-12-18T02:00:14.921Z,96554.69
2022-12-18T02:02:43.967Z,96559.16
2022-12-18T02:05:12.828Z,96539.03
2022-12-18T02:08:09.019Z,96553.13
2022-12-18T02:10:56.893Z,96557.03
2022-12-18T02:13:33.508Z,96539.78
2022-12-18T02:16:28.482Z,96538.28
2022-12-18T02:19:02.061Z,96538.06
2022-12-18T02:22:24.170Z,96539.72
2022-12-18T02:25:31.469Z,96535.25
2022-12-18T02:28:01.601Z,96542.28
2022-12-18T02:30:32.236Z,96531.22
2022-12-18T02:33:02.040Z,96532.44
2022-12-18T02:35:31.287Z,96531.00
2022-12-18T02:37:59.337Z,96532.22
2022-12-18T02:40:28.526Z,96531.41
2022-12-18T02:42:55.615Z,96538.19
2022-12-18T02:45:22.195Z,96543.16
2022-12-18T02:47:50.787Z,96536.81
2022-12-18T02:50:42.828Z,96534.72
2022-12-18T02:53:41.730Z,96533.31
2022-12-18T02:56:20.456Z,96543.41
2022-12-18T02:58:58.669Z,96532.50
2022-12-18T03:01:34.837Z,96540.94
2022-12-18T03:04:31.787Z,96539.91
2022-12-18T03:07:03.873Z,96528.34
2022-12-18T03:09:37.571Z,96534.88
2022-12-18T03:12:26.495Z,96553.16
2022-12-18T03:15:14.524Z,96543.50
2022-12-18T03:17:54.053Z,96546.38
2022-12-18T03:20:23.083Z,96540.41
2022-12-18T03:22:54.801Z,96540.81
2022-12-18T03:25:22.557Z,96534.00
2022-12-18T03:27:55.476Z,96532.31
2022-12-18T03:30:22.098Z,96522.47
2022-12-18T03:32:57.649Z,96525.00
2022-12-18T03:35:34.318Z,96518.00
2022-12-18T03:38:01.046Z,96507.31
2022-12-18T03:40:56.255Z,96513.44
2022-12-18T03:43:41.225Z,96515.91
2022-12-18T03:46:16.506Z,96509.72
2022-12-18T03:48:51.749Z,96497.75
2022-12-18T03:51:27.289Z,96491.13
2022-12-18T03:54:07.437Z,96492.75
2022-12-18T03:56:39.690Z,96492.59
2022-12-18T03:59:08.944Z,96497.69
2022-12-18T04:01:40.873Z,96497.72
2022-12-18T04:04:09.418Z,96486.22
2022-12-18T04:06:37.199Z,96492.00
2022-12-18T04:09:05.745Z,96487.31
2022-12-18T04:11:32.336Z,96476.88
2022-12-18T04:13:59.694Z,96474.81
2022-12-18T04:16:27.414Z,96474.81
2022-12-18T04:18:55.269Z,96472.09
2022-12-18T04:21:22.096Z,96467.38
2022-12-18T04:23:48.608Z,96474.72
2022-12-18T04:26:15.197Z,96474.91
2022-12-18T04:28:41.862Z,96474.91
2022-12-18T04:31:08.444Z,96467.41
2022-12-18T04:33:35.124Z,96473.00
2022-12-18T04:36:01.704Z,96476.66
2022-12-18T04:38:28.400Z,96475.09
2022-12-18T04:40:55.012Z,96473.44
2022-12-18T04:43:21.883Z,96471.63
2022-12-18T04:45:48.496Z,96472.88
2022-12-18T04:48:15.179Z,96482.53
2022-12-18T04:50:41.676Z,96492.19
2022-12-18T04:53:08.255Z,96492.00
2022-12-18T04:55:35.130Z,96493.22
2022-12-18T04:58:01.628Z,96489.91
2022-12-18T05:00:28.387Z,96488.03
2022-12-18T05:02:55.508Z,96506.91
2022-12-18T05:05:22.143Z,96511.56
2022-12-18T05:07:48.736Z,96518.50
2022-12-18T05:10:15.256Z,96535.31
2022-12-18T05:13:00.829Z,96540.44
2022-12-18T05:15:32.416Z,96544.31
2022-12-18T05:18:00.206Z,96548.19
2022-12-18T05:20:28.236Z,96557.75
2022-12-18T05:22:55.541Z,96564.63
2022-12-18T05:25:22.537Z,96564.69
2022-12-18T05:27:49.350Z,96559.50
2022-12-18T05:30:17.242Z,96559.22
2022-12-18T05:32:44.274Z,96561.81
2022-12-18T05:35:11.928Z,96557.00
2022-12-18T05:37:42.886Z,96559.41
2022-12-18T05:40:10.739Z,96550.91
2022-12-18T05:42:37.242Z,96557.63
2022-12-18T05:45:04.556Z,96561.88
2022-12-18T05:47:31.137Z,96566.88
2022-12-18T05:49:57.736Z,96565.41
2022-12-18T05:52:24.361Z,96568.53
2022-12-18T05:54:51.126Z,96561.09
2022-12-18T05:57:17.694Z,96558.34
2022-12-18T05:59:44.626Z,96560.19
2022-12-18T06:02:11.322Z,96572.56
2022-12-18T06:04:38.160Z,96560.38
2022-12-18T06:07:04.783Z,96561.31
2022-12-18T06:09:31.452Z,96549.38
2022-12-18T06:11:58.015Z,96556.28
2022-12-18T06:14:24.533Z,96558.75
2022-12-18T06:16:54.172Z,96564.34
2022-12-18T06:19:20.910Z,96560.31
2022-12-18T06:21:48.112Z,96553.69
2022-12-18T06:24:18.784Z,96562.03
2022-12-18T06:26:45.413Z,96558.63
2022-12-18T06:29:12.022Z,96546.97
2022-12-18T06:31:38.626Z,96546.78
2022-12-18T06:34:06.059Z,96542.91
2022-12-18T06:36:33.171Z,96547.88
2022-12-18T06:38:59.760Z,96538.25
2022-12-18T06:41:26.582Z,96551.00
2022-12-18T06:43:58.119Z,96548.25
2022-12-18T06:46:26.178Z,96536.41
2022-12-18T06:48:52.722Z,96547.56
2022-12-18T06:51:24.072Z,96545.13
2022-12-18T06:53:50.786Z,96551.69
2022-12-18T06:56:17.791Z,96549.25
2022-12-18T06:58:44.685Z,96549.03
2022-12-18T07:01:12.961Z,96551.06
2022-12-18T07:03:41.495Z,96560.09
2022-12-18T07:06:15.099Z,96566.19
2022-12-18T07:08:41.659Z,96558.56
2022-12-18T07:11:08.351Z,96565.13
2022-12-18T07:13:34.945Z,96551.34
2022-12-18T07:16:22.355Z,96537.75
2022-12-18T07:18:50.752Z,96530.00
2022-12-18T07:21:19.647Z,96534.72
2022-12-18T07:23:48.968Z,96522.38
2022-12-18T07:26:18.824Z,96516.66
2022-12-18T07:28:45.548Z,96513.59
2022-12-18T07:31:15.585Z,96516.28
2022-12-18T07:33:43.126Z,96505.59
2022-12-18T07:36:11.257Z,96515.47
2022-12-18T07:38:37.940Z,96507.53
2022-12-18T07:41:14.768Z,96522.09
2022-12-18T07:43:42.812Z,96525.41
2022-12-18T07:46:10.902Z,96518.22
2022-12-18T07:48:39.639Z,96517.53
2022-12-18T07:51:08.166Z,96516.50
2022-12-18T07:53:36.863Z,96512.44
2022-12-18T07:56:26.710Z,96515.69
2022-12-18T07:58:53.313Z,96513.59
2022-12-18T08:01:19.993Z,96518.31
2022-12-18T08:03:47.961Z,96515.63
2022-12-18T08:06:14.897Z,96523.66
2022-12-18T08:08:43.174Z,96514.38
2022-12-18T08:11:09.853Z,96514.38
2022-12-18T08:13:36.755Z,96505.75
2022-12-18T08:16:08.452Z,96507.19
2022-12-18T08:18:37.125Z,96511.91
2022-12-18T08:21:16.051Z,96517.72
2022-12-18T08:23:43.798Z,96519.34
2022-12-18T08:26:11.957Z,96517.47
2022-12-18T08:28:38.764Z,96508.84
2022-12-18T08:31:05.904Z,96518.94
2022-12-18T08:33:33.244Z,96508.34
2022-12-18T08:36:00.913Z,96522.72
2022-12-18T08:38:27.651Z,96522.75
2022-12-18T08:41:01.492Z,96519.91
2022-12-18T08:43:47.332Z,96527.28
2022-12-18T08:46:14.244Z,96539.03
2022-12-18T08:48:40.857Z,96527.53
2022-12-18T08:51:07.784Z,96520.34
2022-12-18T08:53:35.902Z,96537.63
2022-12-18T08:56:03.695Z,96536.41
2022-12-18T08:58:30.885Z,96538.88
2022-12-18T09:01:05.581Z,96534.38
2022-12-18T09:03:32.236Z,96524.34
2022-12-18T09:05:58.789Z,96531.94
2022-12-18T09:08:25.444Z,96538.94
2022-12-18T09:10:53.031Z,96534.00
2022-12-18T09:13:19.890Z,96529.47
2022-12-18T09:15:48.968Z,96538.09
2022-12-18T09:18:17.513Z,96532.94
2022-12-18T09:20:45.251Z,96540.13
2022-12-18T09:23:12.572Z,96536.84
2022-12-18T09:25:39.480Z,96531.94
2022-12-18T09:28:17.494Z,96540.97
2022-12-18T09:30:49.866Z,96536.88
2022-12-18T09:33:17.762Z,96537.72
2022-12-18T09:35:46.006Z,96538.13
2022-12-18T09:38:18.876Z,96536.03
2022-12-18T09:40:52.627Z,96532.31
2022-12-18T09:43:25.615Z,96528.59
2022-12-18T09:45:58.161Z,96523.25
2022-12-18T09:48:41.154Z,96512.78
2022-12-18T09:51:18.573Z,96523.47
2022-12-18T09:53:51.555Z,96517.94
2022-12-18T09:56:23.582Z,96527.16
2022-12-18T09:58:58.285Z,96528.19
2022-12-18T10:01:28.968Z,96520.84
2022-12-18T10:04:00.776Z,96502.16
2022-12-18T10:06:39.373Z,96508.56
2022-12-18T10:09:05.937Z,96509.84
2022-12-18T10:11:47.400Z,96504.91
2022-12-18T10:14:29.100Z,96492.22
2022-12-18T10:17:11.004Z,96498.78
2022-12-18T10:19:50.161Z,96478.69
2022-12-18T10:22:40.436Z,96475.38
2022-12-18T10:25:22.830Z,96483.00
2022-12-18T10:27:54.386Z,96466.75
2022-12-18T10:30:24.025Z,96472.94
2022-12-18T10:32:51.065Z,96467.16
2022-12-18T10:35:22.328Z,96465.09
2022-12-18T10:38:15.172Z,96470.66
2022-12-18T10:41:01.881Z,96462.63
2022-12-18T10:43:38.715Z,96457.91
2022-12-18T10:46:11.038Z,96463.88
2022-12-18T10:48:50.115Z,96459.78
2022-12-18T10:51:25.587Z,96460.19
2022-12-18T10:53:58.567Z,96461.81
2022-12-18T10:56:27.268Z,96456.88
2022-12-18T10:59:09.555Z,96460.19
2022-12-18T11:01:57.208Z,96454.22
2022-12-18T11:04:29.832Z,96456.69
2022-12-18T11:07:03.927Z,96454.22
2022-12-18T11:09:35.905Z,96448.03
2022-12-18T11:12:16.341Z,96454.63
2022-12-18T11:14:50.632Z,96457.94
2022-12-18T11:17:32.799Z,96463.28
2022-12-18T11:20:01.706Z,96463.28
2022-12-18T11:22:31.047Z,96471.69
2022-12-18T11:28:26.013Z,96461.63
2022-12-18T11:31:11.027Z,96469.03
2022-12-18T11:33:53.192Z,96469.25
2022-12-18T11:36:34.059Z,96474.59
2022-12-18T11:39:10.539Z,96455.88
2022-12-18T11:42:13.318Z,96449.50
2022-12-18T11:44:42.550Z,96453.19
2022-12-18T11:47:40.473Z,96447.84
2022-12-18T11:50:15.448Z,96443.31
2022-12-18T11:52:43.317Z,96440.84
2022-12-18T11:55:16.180Z,96440.44
2022-12-18T11:58:07.406Z,96432.81
2022-12-18T12:00:41.860Z,96435.50
2022-12-18T12:03:36.648Z,96430.16
2022-12-18T12:06:34.822Z,96424.16
2022-12-18T12:09:36.945Z,96424.38
2022-12-18T12:12:24.782Z,96428.09
2022-12-18T12:15:38.881Z,96422.94
2022-12-18T12:18:37.424Z,96418.63
2022-12-18T12:21:24.596Z,96420.91
2022-12-18T12:23:58.331Z,96421.91
2022-12-18T12:26:34.043Z,96427.25
2022-12-18T12:29:23.176Z,96427.88
2022-12-18T12:31:52.461Z,96427.03
2022-12-18T12:34:23.437Z,96424.34
2022-12-18T12:37:09.185Z,96422.28
2022-12-18T12:39:40.579Z,96416.97
2022-12-18T12:42:35.390Z,96414.91
2022-12-18T12:45:07.614Z,96411.41
2022-12-18T12:47:41.804Z,96413.25
2022-12-18T12:50:17.370Z,96403.78
2022-12-18T12:52:56.804Z,96411.41
2022-12-18T12:55:29.063Z,96405.66
2022-12-18T12:58:17.675Z,96395.56
2022-12-18T13:00:58.492Z,96392.66
2022-12-18T13:03:46.800Z,96389.97
2022-12-18T13:06:55.635Z,96392.66
2022-12-18T13:09:22.180Z,96397.41
2022-12-18T13:12:07.671Z,96386.66
2022-12-18T13:14:42.041Z,96376.13
2022-12-18T13:17:25.886Z,96378.13
2022-12-18T13:20:15.428Z,96369.72
2022-12-18T13:22:51.273Z,96374.81
2022-12-18T13:25:38.461Z,96373.19
2022-12-18T13:28:16.509Z,96373.13
2022-12-18T13:30:44.628Z,96366.34
2022-12-18T13:33:25.346Z,96364.25
2022-12-18T13:36:03.892Z,96372.91
2022-12-18T13:38:33.167Z,96363.09
2022-12-18T13:41:21.519Z,96366.97
2022-12-18T13:43:54.425Z,96372.38
2022-12-18T13:46:26.724Z,96361.22
2022-12-18T13:49:14.885Z,96364.13
2022-12-18T13:51:45.035Z,96367.41
2022-12-18T13:54:23.454Z,96369.47
2022-12-18T13:56:50.209Z,96368.22
2022-12-18T13:59:23.215Z,96367.00
2022-12-18T14:01:59.032Z,96365.50
2022-12-18T14:04:31.572Z,96365.31
2022-12-18T14:07:10.908Z,96378.91
2022-12-18T14:10:41.816Z,96377.91
2022-12-18T14:13:07.930Z,96366.63
2022-12-18T14:15:40.455Z,96365.56
2022-12-18T14:18:39.218Z,96360.47
2022-12-18T14:21:06.745Z,96369.34
2022-12-18T14:23:36.713Z,96365.84
2022-12-18T14:26:20.945Z,96367.06
2022-12-18T14:28:47.859Z,96361.31
2022-12-18T14:31:23.107Z,96365.25
2022-12-18T14:33:50.992Z,96354.97
2022-12-18T14:36:23.504Z,96357.63
2022-12-18T14:38:55.345Z,96364.19
2022-12-18T14:41:23.448Z,96348.63
2022-12-18T14:43:52.222Z,96359.09
2022-12-18T14:46:37.798Z,96373.31
2022-12-18T14:49:35.367Z,96370.81
2022-12-18T14:52:17.484Z,96376.63
2022-12-18T14:54:47.564Z,96384.22
2022-12-18T14:57:24.557Z,96383.63
2022-12-18T14:59:51.953Z,96377.84
2022-12-18T15:02:26.259Z,96375.19
2022-12-18T15:05:12.993Z,96379.09
2022-12-18T15:07:47.668Z,96377.03
2022-12-18T15:10:21.250Z,96379.09
2022-12-18T15:12:50.435Z,96373.13
2022-12-18T15:15:41.515Z,96363.88
2022-12-18T15:18:08.042Z,96364.28
2022-12-18T15:20:40.836Z,96374.38
2022-12-18T15:23:24.273Z,96379.53
2022-12-18T15:26:06.250Z,96374.56
2022-12-18T15:28:36.293Z,96390.84
2022-12-18T15:31:17.741Z,96371.50
2022-12-18T15:33:53.930Z,96371.72
2022-12-18T15:36:26.176Z,96381.38
2022-12-18T15:38:55.199Z,96367.00
2022-12-18T15:41:24.817Z,96368.03
2022-12-18T15:43:53.222Z,96368.03
2022-12-18T15:46:22.639Z,96370.09
2022-12-18T15:48:55.427Z,96362.28
2022-12-18T15:51:29.343Z,96372.34
2022-12-18T15:53:59.529Z,96365.97
2022-12-18T15:56:49.897Z,96368.44
2022-12-18T15:59:19.084Z,96365.34
2022-12-18T16:01:48.818Z,96349.91
2022-12-18T16:04:18.013Z,96363.28
2022-12-18T16:07:13.141Z,96366.34
2022-12-18T16:09:31.246Z,96361.44
2022-12-18T16:11:57.888Z,96369.66
2022-12-18T16:14:27.701Z,96369.47
2022-12-18T16:17:04.384Z,96363.69
2022-12-18T16:19:31.405Z,96360.19
2022-12-18T16:21:59.909Z,96359.56
2022-12-18T16:24:29.836Z,96350.72
2022-12-18T16:26:59.834Z,96358.56
2022-12-18T16:29:28.731Z,96363.69
2022-12-18T16:32:01.693Z,96360.19
2022-12-18T16:34:31.415Z,96357.50
2022-12-18T16:37:05.463Z,96354.41
2022-12-18T16:39:36.228Z,96356.88
2022-12-18T16:42:09.893Z,96355.03
2022-12-18T16:44:36.862Z,96347.84
2022-12-18T16:47:04.379Z,96358.34
2022-12-18T16:49:31.980Z,96352.34
2022-12-18T16:51:58.660Z,96350.94
2022-12-18T16:54:25.414Z,96354.44
2022-12-18T16:56:52.572Z,96353.81
2022-12-18T16:59:19.368Z,96332.00
2022-12-18T17:01:47.400Z,96337.16
2022-12-18T17:04:14.779Z,96338.78
2022-12-18T17:06:44.224Z,96332.19
2022-12-18T17:09:15.923Z,96337.97
2022-12-18T17:11:43.230Z,96326.84
2022-12-18T17:14:14.127Z,96328.28
2022-12-18T17:16:40.771Z,96323.97
2022-12-18T17:19:12.112Z,96325.59
2022-12-18T17:21:41.936Z,96316.31
2022-12-18T17:24:08.937Z,96321.06
2022-12-18T17:26:35.526Z,96310.16
2022-12-18T17:29:02.114Z,96310.13
2022-12-18T17:31:29.985Z,96303.34
2022-12-18T17:33:57.580Z,96304.34
2022-12-18T17:36:25.054Z,96302.50
2022-12-18T17:38:56.363Z,96309.06
2022-12-18T17:41:23.621Z,96307.22
2022-12-18T17:44:06.776Z,96297.31
2022-12-18T17:46:34.304Z,96304.31
2022-12-18T17:49:03.003Z,96291.97
2022-12-18T17:51:31.155Z,96299.16
2022-12-18T17:53:57.773Z,96290.25
2022-12-18T17:56:25.264Z,96293.13
2022-12-18T17:58:52.306Z,96292.50
2022-12-18T18:01:23.211Z,96295.78
2022-12-18T18:03:50.766Z,96304.81
2022-12-18T18:06:20.358Z,96297.63
2022-12-18T18:08:46.925Z,96296.16
2022-12-18T18:11:36.961Z,96300.06
2022-12-18T18:14:06.980Z,96296.75
2022-12-18T18:16:37.468Z,96304.34
2022-12-18T18:19:08.210Z,96301.69
2022-12-18T18:21:38.326Z,96300.63
2022-12-18T18:24:05.811Z,96293.66
2022-12-18T18:26:34.116Z,96299.38
2022-12-18T18:29:03.028Z,96296.50
2022-12-18T18:31:34.794Z,96298.53
2022-12-18T18:34:06.936Z,96299.78
2022-12-18T18:36:34.715Z,96303.28
2022-12-18T18:39:02.191Z,96305.13
2022-12-18T18:41:30.569Z,96311.53
2022-12-18T18:43:58.539Z,96304.09
2022-12-18T18:46:25.779Z,96291.06
2022-12-18T18:48:52.614Z,96291.88
2022-12-18T18:51:21.780Z,96293.50
2022-12-18T18:53:50.581Z,96292.25
2022-12-18T18:56:45.451Z,96295.38
2022-12-18T18:59:05.863Z,96306.91
2022-12-18T19:01:33.106Z,96303.41
2022-12-18T19:04:00.810Z,96305.06
2022-12-18T19:06:28.576Z,96294.94
2022-12-18T19:08:57.061Z,96285.47
2022-12-18T19:11:44.137Z,96283.63
2022-12-18T19:14:13.645Z,96283.34
2022-12-18T19:16:41.846Z,96296.31
2022-12-18T19:19:08.997Z,96288.88
2022-12-18T19:21:37.341Z,96291.13
2022-12-18T19:24:05.134Z,96296.88
2022-12-18T19:26:31.905Z,96293.97
2022-12-18T19:29:03.240Z,96300.38
2022-12-18T19:31:35.188Z,96299.56
2022-12-18T19:34:02.686Z,96295.84
2022-12-18T19:36:30.424Z,96299.94
2022-12-18T19:38:59.916Z,96309.84
2022-12-18T19:41:29.096Z,96299.28
2022-12-18T19:43:58.431Z,96306.72
2022-12-18T19:46:25.425Z,96306.06
2022-12-18T19:48:52.502Z,96314.88
2022-12-18T19:51:22.466Z,96317.13
2022-12-18T19:53:53.591Z,96317.72
2022-12-18T19:56:26.388Z,96326.78
2022-12-18T19:58:53.987Z,96320.00
2022-12-18T20:01:22.409Z,96321.44
2022-12-18T20:03:52.559Z,96335.66
2022-12-18T20:06:31.369Z,96318.09
2022-12-18T20:09:01.394Z,96335.81
2022-12-18T20:11:32.126Z,96320.78
2022-12-18T20:13:58.865Z,96322.41
2022-12-18T20:16:25.428Z,96324.28
2022-12-18T20:18:55.059Z,96317.88
2022-12-18T20:21:21.716Z,96310.44
2022-12-18T20:23:48.280Z,96306.28
2022-12-18T20:26:14.870Z,96309.13
2022-12-18T20:28:42.297Z,96310.31
2022-12-18T20:31:10.394Z,96308.25
2022-12-18T20:33:37.616Z,96308.66
2022-12-18T20:36:06.438Z,96309.03
2022-12-18T20:38:35.481Z,96309.63
2022-12-18T20:41:07.399Z,96309.34
2022-12-18T20:43:34.006Z,96311.44
2022-12-18T20:46:03.117Z,96317.78
2022-12-18T20:48:30.248Z,96320.84
2022-12-18T20:51:09.770Z,96324.13
2022-12-18T20:53:36.893Z,96317.09
2022-12-18T20:56:14.964Z,96324.72
2022-12-18T20:58:45.380Z,96321.59
2022-12-18T21:01:18.601Z,96324.88
2022-12-18T21:03:46.532Z,96312.06
2022-12-18T21:06:15.402Z,96308.94
2022-12-18T21:08:42.508Z,96314.06
2022-12-18T21:11:54.021Z,96302.88
2022-12-18T21:14:23.257Z,96305.94
2022-12-18T21:16:50.915Z,96293.56
2022-12-18T21:19:20.044Z,96293.72
2022-12-18T21:21:47.405Z,96297.69
2022-12-18T21:24:14.261Z,96294.78
2022-12-18T21:26:46.109Z,96297.00
2022-12-18T21:29:15.776Z,96298.50
2022-12-18T21:31:42.982Z,96318.91
2022-12-18T21:34:14.886Z,96306.16
2022-12-18T21:36:41.536Z,96300.13
2022-12-18T21:39:08.445Z,96304.91
2022-12-18T21:41:53.399Z,96297.44
2022-12-18T21:44:22.413Z,96295.81
2022-12-18T21:46:55.006Z,96307.28
2022-12-18T21:49:26.401Z,96290.81
2022-12-18T21:51:56.106Z,96288.34
2022-12-18T21:54:25.125Z,96288.34
2022-12-18T21:56:55.829Z,96289.19
2022-12-18T21:59:29.323Z,96286.88
2022-12-18T22:01:58.319Z,96288.34
2022-12-18T22:04:25.766Z,96290.38
2022-12-18T22:06:52.662Z,96274.13
2022-12-18T22:09:21.437Z,96286.19
2022-12-18T22:11:49.230Z,96281.88
2022-12-18T22:14:16.784Z,96278.22
2022-12-18T22:16:43.815Z,96266.00
2022-12-18T22:19:11.071Z,96261.44
2022-12-18T22:21:40.227Z,96257.94
2022-12-18T22:24:10.670Z,96261.38
2022-12-18T22:26:40.195Z,96254.81
2022-12-18T22:29:26.399Z,96268.38
2022-12-18T22:31:52.939Z,96261.72
2022-12-18T22:34:22.991Z,96269.78
2022-12-18T22:36:50.809Z,96263.91
2022-12-18T22:39:28.545Z,96247.66
2022-12-18T22:41:56.457Z,96240.44
2022-12-18T22:44:26.177Z,96249.06
2022-12-18T22:46:55.860Z,96245.78
2022-12-18T22:49:33.148Z,96237.06
2022-12-18T22:52:02.191Z,96250.50
2022-12-18T22:54:28.775Z,96250.63
2022-12-18T22:56:55.676Z,96253.09
2022-12-18T22:59:23.355Z,96244.81
2022-12-18T23:01:58.579Z,96250.78
2022-12-18T23:04:36.064Z,96254.06
2022-12-18T23:07:06.478Z,96246.59
2022-12-18T23:09:33.948Z,96229.91
2022-12-18T23:12:01.169Z,96236.03
2022-12-18T23:14:28.746Z,96224.84
2022-12-18T23:16:55.400Z,96231.97
2022-12-18T23:19:23.611Z,96222.66
2022-12-18T23:21:51.214Z,96212.84
2022-12-18T23:24:18.202Z,96213.69
2022-12-18T23:26:44.734Z,96209.25
2022-12-18T23:29:11.314Z,96200.16
2022-12-18T23:31:39.309Z,96193.16
2022-12-18T23:34:06.991Z,96192.47
2022-12-18T23:36:45.637Z,96182.75
2022-12-18T23:39:19.964Z,96190.00
2022-12-18T23:41:56.164Z,96197.25
2022-12-18T23:44:22.863Z,96191.78
2022-12-18T23:46:49.491Z,96194.34
2022-12-18T23:49:16.195Z,96184.56
2022-12-18T23:51:42.891Z,96184.69
2022-12-18T23:54:10.256Z,96178.84
2022-12-18T23:56:36.874Z,96180.03
2022-12-18T23:59:03.573Z,96174.66
